createdAt,value
2022-08-17T00:00:43.644Z,96465.72
2022-08-17T00:03:11.675Z,96465.66
2022-08-17T00:05:44.902Z,96457.03
2022-08-17T00:08:13.292Z,96447.22
2022-08-17T00:10:42.111Z,96453.00
2022-08-17T00:13:11.815Z,96456.06
2022-08-17T00:15:40.165Z,96453.25
2022-08-17T00:18:53.877Z,96447.75
2022-08-17T00:20:59.075Z,96451.63
2022-08-17T00:23:27.921Z,96453.53
2022-08-17T00:25:56.213Z,96451.97
2022-08-17T00:28:25.209Z,96460.53
2022-08-17T00:30:54.095Z,96454.31
2022-08-17T00:33:26.495Z,96448.88
2022-08-17T00:35:55.153Z,96452.75
2022-08-17T00:38:23.474Z,96459.00
2022-08-17T00:40:55.837Z,96458.13
2022-08-17T00:43:30.415Z,96451.84
2022-08-17T00:45:59.073Z,96455.72
2022-08-17T00:48:29.864Z,96449.84
2022-08-17T00:51:02.459Z,96451.00
2022-08-17T00:53:32.940Z,96448.66
2022-08-17T00:56:03.498Z,96443.19
2022-08-17T00:58:36.203Z,96450.94
2022-08-17T01:01:06.180Z,96448.97
2022-08-17T01:03:36.054Z,96442.63
2022-08-17T01:06:05.110Z,96451.91
2022-08-17T01:08:33.877Z,96444.47
2022-08-17T01:11:02.686Z,96434.97
2022-08-17T01:13:39.799Z,96433.38
2022-08-17T01:16:13.197Z,96432.19
2022-08-17T01:18:42.819Z,96434.91
2022-08-17T01:21:14.761Z,96432.50
2022-08-17T01:23:44.225Z,96426.50
2022-08-17T01:26:12.249Z,96436.13
2022-08-17T01:28:54.242Z,96434.53
2022-08-17T01:31:25.763Z,96421.97
2022-08-17T01:33:53.832Z,96434.75
2022-08-17T01:36:22.215Z,96428.88
2022-08-17T01:38:51.714Z,96428.88
2022-08-17T01:41:20.432Z,96427.28
2022-08-17T01:43:51.049Z,96428.88
2022-08-17T01:46:24.184Z,96424.13
2022-08-17T01:48:52.231Z,96426.47
2022-08-17T01:51:21.442Z,96432.91
2022-08-17T01:53:53.908Z,96436.38
2022-08-17T01:56:24.177Z,96428.91
2022-08-17T01:58:52.390Z,96438.53
2022-08-17T02:01:22.639Z,96425.22
2022-08-17T02:03:56.296Z,96429.06
2022-08-17T02:06:30.191Z,96432.91
2022-08-17T02:09:02.213Z,96431.72
2022-08-17T02:11:33.078Z,96431.28
2022-08-17T02:14:03.231Z,96440.94
2022-08-17T02:16:37.585Z,96424.91
2022-08-17T02:19:08.059Z,96425.28
2022-08-17T02:21:36.888Z,96424.06
2022-08-17T02:24:07.323Z,96415.84
2022-08-17T02:26:35.416Z,96412.88
2022-08-17T02:29:04.185Z,96411.34
2022-08-17T02:31:32.539Z,96411.34
2022-08-17T02:34:04.538Z,96408.63
2022-08-17T02:36:34.527Z,96411.69
2022-08-17T02:39:02.971Z,96413.63
2022-08-17T02:41:32.572Z,96412.03
2022-08-17T02:44:01.146Z,96409.25
2022-08-17T02:46:30.496Z,96405.75
2022-08-17T02:48:58.628Z,96411.19
2022-08-17T02:51:27.338Z,96405.31
2022-08-17T02:54:38.988Z,96404.19
2022-08-17T02:56:44.929Z,96400.22
2022-08-17T02:59:12.937Z,96399.44
2022-08-17T03:01:41.061Z,96406.06
2022-08-17T03:04:09.120Z,96402.53
2022-08-17T03:06:37.531Z,96400.19
2022-08-17T03:09:06.085Z,96404.81
2022-08-17T03:11:34.143Z,96405.63
2022-08-17T03:14:03.513Z,96398.53
2022-08-17T03:16:31.481Z,96393.88
2022-08-17T03:18:59.440Z,96391.16
2022-08-17T03:21:27.419Z,96390.00
2022-08-17T03:23:55.449Z,96388.44
2022-08-17T03:26:23.421Z,96392.72
2022-08-17T03:28:56.721Z,96389.16
2022-08-17T03:31:26.131Z,96384.06
2022-08-17T03:33:54.148Z,96391.44
2022-08-17T03:36:22.318Z,96381.28
2022-08-17T03:38:50.272Z,96380.84
2022-08-17T03:41:19.061Z,96385.94
2022-08-17T03:43:47.003Z,96388.31
2022-08-17T03:46:35.265Z,96390.56
2022-08-17T03:49:24.388Z,96390.56
2022-08-17T03:52:10.032Z,96391.44
2022-08-17T03:54:55.631Z,96393.00
2022-08-17T03:57:23.595Z,96399.59
2022-08-17T03:59:51.568Z,96394.16
2022-08-17T04:02:22.987Z,96399.19
2022-08-17T04:04:52.669Z,96408.47
2022-08-17T04:07:21.883Z,96408.47
2022-08-17T04:09:49.929Z,96410.84
2022-08-17T04:12:19.390Z,96415.50
2022-08-17T04:14:52.827Z,96410.75
2022-08-17T04:17:24.262Z,96412.63
2022-08-17T04:19:54.059Z,96409.16
2022-08-17T04:22:31.819Z,96410.69
2022-08-17T04:25:04.848Z,96418.50
2022-08-17T04:27:32.889Z,96422.00
2022-08-17T04:30:00.884Z,96421.22
2022-08-17T04:33:04.974Z,96423.53
2022-08-17T04:35:22.018Z,96429.72
2022-08-17T04:37:50.617Z,96433.22
2022-08-17T04:40:37.510Z,96430.16
2022-08-17T04:43:08.546Z,96432.50
2022-08-17T04:45:40.443Z,96436.34
2022-08-17T04:48:23.025Z,96425.06
2022-08-17T04:50:59.237Z,96432.09
2022-08-17T04:53:28.040Z,96435.66
2022-08-17T04:55:57.687Z,96437.22
2022-08-17T04:58:25.703Z,96439.22
2022-08-17T05:00:53.843Z,96430.03
2022-08-17T05:03:21.830Z,96433.50
2022-08-17T05:05:50.163Z,96439.38
2022-08-17T05:08:21.290Z,96437.44
2022-08-17T05:10:50.231Z,96432.78
2022-08-17T05:13:22.147Z,96432.00
2022-08-17T05:15:53.358Z,96435.06
2022-08-17T05:18:21.304Z,96427.00
2022-08-17T05:20:52.688Z,96431.38
2022-08-17T05:23:24.204Z,96430.63
2022-08-17T05:25:54.662Z,96438.53
2022-08-17T05:28:27.524Z,96430.78
2022-08-17T05:30:57.966Z,96429.28
2022-08-17T05:33:28.576Z,96430.88
2022-08-17T05:35:59.077Z,96425.06
2022-08-17T05:38:29.830Z,96418.47
2022-08-17T05:40:58.848Z,96421.63
2022-08-17T05:43:28.614Z,96426.72
2022-08-17T05:46:02.433Z,96426.28
2022-08-17T05:48:35.642Z,96422.06
2022-08-17T05:51:29.193Z,96427.22
2022-08-17T05:54:08.600Z,96426.91
2022-08-17T05:57:02.989Z,96423.13
2022-08-17T05:59:36.512Z,96426.63
2022-08-17T06:02:09.443Z,96432.91
2022-08-17T06:04:48.041Z,96431.50
2022-08-17T06:07:21.845Z,96430.06
2022-08-17T06:10:05.135Z,96430.19
2022-08-17T06:12:40.022Z,96440.38
2022-08-17T06:15:29.418Z,96446.22
2022-08-17T06:17:58.994Z,96443.63
2022-08-17T06:20:28.476Z,96451.94
2022-08-17T06:23:03.178Z,96449.34
2022-08-17T06:25:36.658Z,96453.31
2022-08-17T06:28:07.712Z,96453.38
2022-08-17T06:30:59.337Z,96453.50
2022-08-17T06:33:34.460Z,96451.69
2022-08-17T06:36:15.972Z,96467.72
2022-08-17T06:38:49.911Z,96466.31
2022-08-17T06:41:25.231Z,96471.44
2022-08-17T06:44:11.960Z,96469.66
2022-08-17T06:47:05.082Z,96475.59
2022-08-17T06:49:40.563Z,96475.34
2022-08-17T06:52:46.536Z,96479.31
2022-08-17T06:55:18.916Z,96479.41
2022-08-17T06:57:51.310Z,96477.94
2022-08-17T07:00:22.307Z,96474.16
2022-08-17T07:02:54.323Z,96484.31
2022-08-17T07:05:25.597Z,96479.41
2022-08-17T07:08:04.549Z,96480.28
2022-08-17T07:10:36.978Z,96481.91
2022-08-17T07:13:18.186Z,96474.59
2022-08-17T07:15:46.470Z,96482.94
2022-08-17T07:18:14.413Z,96486.56
2022-08-17T07:20:45.859Z,96481.13
2022-08-17T07:23:18.973Z,96499.56
2022-08-17T07:25:46.949Z,96492.25
2022-08-17T07:28:22.858Z,96497.44
2022-08-17T07:30:53.544Z,96501.00
2022-08-17T07:33:24.065Z,96506.56
2022-08-17T07:35:52.219Z,96503.19
2022-08-17T07:38:24.763Z,96504.81
2022-08-17T07:41:03.784Z,96506.13
2022-08-17T07:43:34.048Z,96510.88
2022-08-17T07:46:24.686Z,96505.44
2022-08-17T07:48:55.075Z,96507.53
2022-08-17T07:51:26.806Z,96509.56
2022-08-17T07:54:12.894Z,96501.84
2022-08-17T07:56:45.307Z,96494.88
2022-08-17T07:59:18.055Z,96499.63
2022-08-17T08:02:05.232Z,96500.47
2022-08-17T08:07:31.305Z,96508.81
2022-08-17T08:10:09.266Z,96499.91
2022-08-17T08:12:40.257Z,96493.69
2022-08-17T08:15:18.972Z,96491.00
2022-08-17T08:17:51.976Z,96496.94
2022-08-17T08:20:52.594Z,96505.59
2022-08-17T08:23:15.540Z,96508.75
2022-08-17T08:25:55.336Z,96507.25
2022-08-17T08:28:29.288Z,96497.09
2022-08-17T08:31:06.546Z,96500.25
2022-08-17T08:33:51.895Z,96503.44
2022-08-17T08:37:12.551Z,96503.81
2022-08-17T08:39:21.839Z,96493.63
2022-08-17T08:41:58.886Z,96501.91
2022-08-17T08:45:00.113Z,96501.91
2022-08-17T08:47:35.548Z,96507.41
2022-08-17T08:50:37.567Z,96505.03
2022-08-17T08:53:07.946Z,96494.00
2022-08-17T08:55:46.734Z,96485.38
2022-08-17T08:58:31.991Z,96486.13
2022-08-17T09:01:17.154Z,96491.63
2022-08-17T09:04:18.159Z,96490.00
2022-08-17T09:06:57.958Z,96497.41
2022-08-17T09:09:41.457Z,96487.56
2022-08-17T09:12:16.818Z,96479.63
2022-08-17T09:14:53.024Z,96481.97
2022-08-17T09:17:23.225Z,96478.00
2022-08-17T09:19:56.986Z,96473.22
2022-08-17T09:22:33.702Z,96473.97
2022-08-17T09:25:07.969Z,96483.28
2022-08-17T09:27:52.076Z,96483.25
2022-08-17T09:30:20.605Z,96480.41
2022-08-17T09:32:55.298Z,96481.97
2022-08-17T09:35:32.958Z,96480.69
2022-08-17T09:38:32.758Z,96484.44
2022-08-17T09:41:07.652Z,96475.69
2022-08-17T09:43:55.305Z,96471.72
2022-08-17T09:46:26.159Z,96471.63
2022-08-17T09:48:58.542Z,96468.41
2022-08-17T09:51:32.966Z,96477.03
2022-08-17T09:54:21.088Z,96476.13
2022-08-17T09:57:11.850Z,96486.69
2022-08-17T09:59:54.511Z,96480.75
2022-08-17T10:02:40.539Z,96482.97
2022-08-17T10:05:12.133Z,96477.00
2022-08-17T10:07:46.530Z,96476.44
2022-08-17T10:10:19.628Z,96472.34
2022-08-17T10:12:53.170Z,96477.03
2022-08-17T10:15:36.974Z,96477.75
2022-08-17T10:18:31.769Z,96478.00
2022-08-17T10:21:21.369Z,96470.50
2022-08-17T10:24:11.834Z,96475.16
2022-08-17T10:26:55.801Z,96469.91
2022-08-17T10:29:28.850Z,96468.47
2022-08-17T10:32:01.411Z,96475.19
2022-08-17T10:34:51.450Z,96455.66
2022-08-17T10:37:52.219Z,96450.06
2022-08-17T10:40:32.473Z,96442.84
2022-08-17T10:43:03.823Z,96452.56
2022-08-17T10:45:37.128Z,96447.41
2022-08-17T10:48:27.208Z,96441.69
2022-08-17T10:51:07.665Z,96447.88
2022-08-17T10:53:54.061Z,96441.50
2022-08-17T10:56:25.890Z,96430.31
2022-08-17T10:58:55.544Z,96430.19
2022-08-17T11:01:58.329Z,96431.97
2022-08-17T11:04:36.701Z,96429.16
2022-08-17T11:07:09.945Z,96433.78
2022-08-17T11:09:50.453Z,96433.78
2022-08-17T11:12:32.698Z,96443.56
2022-08-17T11:15:11.101Z,96444.66
2022-08-17T11:17:52.056Z,96452.81
2022-08-17T11:20:37.557Z,96453.75
2022-08-17T11:23:26.117Z,96454.31
2022-08-17T11:25:56.944Z,96451.22
2022-08-17T11:28:34.359Z,96447.22
2022-08-17T11:31:05.461Z,96448.25
2022-08-17T11:33:58.920Z,96454.72
2022-08-17T11:36:54.801Z,96447.75
2022-08-17T11:39:43.187Z,96448.38
2022-08-17T11:42:25.554Z,96448.13
2022-08-17T11:44:58.164Z,96461.53
2022-08-17T11:48:09.109Z,96451.84
2022-08-17T11:51:03.647Z,96446.84
2022-08-17T11:56:59.220Z,96438.91
2022-08-17T11:59:58.749Z,96445.03
2022-08-17T12:02:38.796Z,96445.75
2022-08-17T12:05:34.248Z,96453.47
2022-08-17T12:08:14.807Z,96448.00
2022-08-17T12:11:01.084Z,96453.28
2022-08-17T12:13:38.501Z,96452.09
2022-08-17T12:16:09.962Z,96450.59
2022-08-17T12:18:39.758Z,96447.91
2022-08-17T12:21:23.348Z,96450.50
2022-08-17T12:23:58.972Z,96448.75
2022-08-17T12:26:31.197Z,96458.50
2022-08-17T12:29:03.180Z,96454.31
2022-08-17T12:31:47.156Z,96457.06
2022-08-17T12:34:19.001Z,96455.75
2022-08-17T12:36:49.407Z,96451.59
2022-08-17T12:39:21.370Z,96450.81
2022-08-17T12:41:51.587Z,96449.41
2022-08-17T12:44:21.447Z,96450.25
2022-08-17T12:46:54.410Z,96450.75
2022-08-17T12:49:29.827Z,96447.59
2022-08-17T12:52:11.028Z,96442.41
2022-08-17T12:54:57.653Z,96443.81
2022-08-17T12:57:27.218Z,96443.63
2022-08-17T12:59:59.475Z,96438.34
2022-08-17T13:02:32.561Z,96437.69
2022-08-17T13:05:01.721Z,96436.13
2022-08-17T13:07:34.261Z,96427.94
2022-08-17T13:10:02.830Z,96432.16
2022-08-17T13:12:33.343Z,96420.28
2022-08-17T13:15:01.514Z,96416.34
2022-08-17T13:17:34.793Z,96412.44
2022-08-17T13:20:06.053Z,96408.00
2022-08-17T13:22:34.028Z,96421.31
2022-08-17T13:25:06.440Z,96412.22
2022-08-17T13:27:34.955Z,96406.88
2022-08-17T13:30:06.812Z,96405.31
2022-08-17T13:32:44.084Z,96407.00
2022-08-17T13:35:49.881Z,96402.53
2022-08-17T13:38:36.737Z,96405.31
2022-08-17T13:41:07.444Z,96400.53
2022-08-17T13:43:45.885Z,96401.06
2022-08-17T13:46:20.274Z,96390.59
2022-08-17T13:48:58.797Z,96383.22
2022-08-17T13:51:30.306Z,96395.06
2022-08-17T13:54:04.510Z,96399.06
2022-08-17T13:56:47.737Z,96400.84
2022-08-17T13:59:17.730Z,96401.06
2022-08-17T14:02:07.099Z,96392.63
2022-08-17T14:04:37.110Z,96403.50
2022-08-17T14:07:26.536Z,96388.81
2022-08-17T14:09:56.898Z,96376.47
2022-08-17T14:12:27.522Z,96383.50
2022-08-17T14:14:56.430Z,96384.22
2022-08-17T14:17:24.853Z,96372.28
2022-08-17T14:19:54.289Z,96382.97
2022-08-17T14:22:25.713Z,96382.38
2022-08-17T14:24:54.213Z,96380.28
2022-08-17T14:27:22.316Z,96386.38
2022-08-17T14:29:50.303Z,96376.47
2022-08-17T14:32:20.957Z,96378.78
2022-08-17T14:34:49.947Z,96368.25
2022-08-17T14:37:20.179Z,96367.28
2022-08-17T14:39:48.348Z,96362.63
2022-08-17T14:42:16.453Z,96359.28
2022-08-17T14:44:44.436Z,96367.44
2022-08-17T14:47:14.867Z,96356.31
2022-08-17T14:49:49.590Z,96357.09
2022-08-17T14:52:21.507Z,96349.88
2022-08-17T14:54:51.379Z,96345.72
2022-08-17T14:57:24.645Z,96338.47
2022-08-17T15:00:02.909Z,96331.59
2022-08-17T15:02:31.356Z,96337.50
2022-08-17T15:05:00.553Z,96323.59
2022-08-17T15:07:30.604Z,96322.66
2022-08-17T15:10:00.930Z,96317.09
2022-08-17T15:12:32.791Z,96320.69
2022-08-17T15:15:01.975Z,96334.47
2022-08-17T15:17:43.694Z,96337.81
2022-08-17T15:20:15.264Z,96333.38
2022-08-17T15:22:45.851Z,96320.81
2022-08-17T15:25:14.431Z,96316.50
2022-08-17T15:27:42.530Z,96326.72
2022-08-17T15:30:11.821Z,96321.72
2022-08-17T15:32:41.450Z,96334.44
2022-08-17T15:35:19.794Z,96332.91
2022-08-17T15:37:58.549Z,96332.28
2022-08-17T15:40:26.699Z,96332.09
2022-08-17T15:42:54.849Z,96327.00
2022-08-17T15:45:26.601Z,96330.53
2022-08-17T15:47:54.936Z,96331.59
2022-08-17T15:50:23.055Z,96340.94
2022-08-17T15:52:58.134Z,96346.00
2022-08-17T15:55:27.359Z,96352.97
2022-08-17T15:57:55.591Z,96351.47
2022-08-17T16:00:24.711Z,96360.28
2022-08-17T16:03:44.584Z,96353.91
2022-08-17T16:05:42.561Z,96346.47
2022-08-17T16:08:14.788Z,96346.28
2022-08-17T16:10:45.571Z,96339.66
2022-08-17T16:13:17.341Z,96345.09
2022-08-17T16:15:51.088Z,96340.16
2022-08-17T16:18:30.886Z,96345.91
2022-08-17T16:21:19.557Z,96347.00
2022-08-17T16:23:50.147Z,96340.66
2022-08-17T16:26:18.912Z,96346.53
2022-08-17T16:28:47.369Z,96340.97
2022-08-17T16:31:15.711Z,96337.56
2022-08-17T16:33:43.921Z,96343.44
2022-08-17T16:36:31.962Z,96333.81
2022-08-17T16:39:01.502Z,96337.84
2022-08-17T16:41:45.230Z,96326.84
2022-08-17T16:44:15.197Z,96338.13
2022-08-17T16:46:45.757Z,96339.34
2022-08-17T16:49:25.771Z,96335.00
2022-08-17T16:52:03.998Z,96332.47
2022-08-17T16:54:35.384Z,96331.50
2022-08-17T16:57:05.509Z,96330.56
2022-08-17T16:59:41.908Z,96325.59
2022-08-17T17:02:14.558Z,96325.25
2022-08-17T17:04:48.109Z,96325.25
2022-08-17T17:07:25.757Z,96318.72
2022-08-17T17:09:56.352Z,96319.25
2022-08-17T17:12:32.286Z,96311.13
2022-08-17T17:15:21.885Z,96306.69
2022-08-17T17:17:52.096Z,96300.03
2022-08-17T17:20:25.760Z,96298.63
2022-08-17T17:23:00.450Z,96301.00
2022-08-17T17:25:34.800Z,96304.66
2022-08-17T17:28:05.307Z,96302.47
2022-08-17T17:30:40.880Z,96307.06
2022-08-17T17:33:12.653Z,96292.78
2022-08-17T17:35:46.080Z,96284.25
2022-08-17T17:38:20.149Z,96284.97
2022-08-17T17:40:53.046Z,96283.78
2022-08-17T17:43:40.267Z,96288.78
2022-08-17T17:46:27.960Z,96284.81
2022-08-17T17:48:57.049Z,96287.50
2022-08-17T17:52:05.277Z,96286.22
2022-08-17T17:54:29.481Z,96286.53
2022-08-17T17:57:04.346Z,96291.22
2022-08-17T17:59:43.918Z,96286.22
2022-08-17T18:02:36.916Z,96296.47
2022-08-17T18:05:10.164Z,96295.91
2022-08-17T18:07:43.782Z,96292.56
2022-08-17T18:10:19.626Z,96299.22
2022-08-17T18:13:05.436Z,96298.75
2022-08-17T18:15:37.350Z,96299.16
2022-08-17T18:18:37.727Z,96295.72
2022-08-17T18:21:15.597Z,96293.63
2022-08-17T18:23:54.605Z,96298.22
2022-08-17T18:26:37.739Z,96294.44
2022-08-17T18:29:25.007Z,96290.84
2022-08-17T18:32:27.817Z,96296.13
2022-08-17T18:34:58.300Z,96283.09
2022-08-17T18:37:47.760Z,96275.66
2022-08-17T18:40:33.641Z,96280.19
2022-08-17T18:43:11.643Z,96274.66
2022-08-17T18:45:44.431Z,96273.41
2022-08-17T18:48:23.115Z,96267.44
2022-08-17T18:50:53.453Z,96265.31
2022-08-17T18:53:30.411Z,96272.25
2022-08-17T18:56:30.878Z,96283.09
2022-08-17T18:59:13.577Z,96284.00
2022-08-17T19:01:53.395Z,96286.91
2022-08-17T19:04:38.146Z,96286.72
2022-08-17T19:07:14.129Z,96278.56
2022-08-17T19:09:45.985Z,96282.19
2022-08-17T19:12:26.945Z,96287.06
2022-08-17T19:14:56.756Z,96285.66
2022-08-17T19:17:31.556Z,96277.88
2022-08-17T19:20:02.434Z,96283.13
2022-08-17T19:22:39.655Z,96286.03
2022-08-17T19:25:16.129Z,96281.00
2022-08-17T19:27:49.992Z,96279.91
2022-08-17T19:30:21.066Z,96274.50
2022-08-17T19:32:50.715Z,96268.69
2022-08-17T19:35:20.256Z,96266.81
2022-08-17T19:37:56.474Z,96259.47
2022-08-17T19:40:51.594Z,96268.63
2022-08-17T19:43:24.235Z,96269.53
2022-08-17T19:45:59.513Z,96275.19
2022-08-17T19:48:39.554Z,96280.81
2022-08-17T19:51:10.728Z,96280.06
2022-08-17T19:54:04.399Z,96292.72
2022-08-17T19:56:36.484Z,96296.75
2022-08-17T19:59:09.721Z,96292.47
2022-08-17T20:01:43.427Z,96293.66
2022-08-17T20:04:32.223Z,96296.03
2022-08-17T20:07:04.681Z,96305.53
2022-08-17T20:09:38.449Z,96304.41
2022-08-17T20:12:10.473Z,96297.34
2022-08-17T20:14:53.944Z,96295.06
2022-08-17T20:17:28.414Z,96301.81
2022-08-17T20:20:03.737Z,96297.16
2022-08-17T20:22:50.386Z,96307.41
2022-08-17T20:25:30.493Z,96303.53
2022-08-17T20:28:06.234Z,96307.47
2022-08-17T20:30:38.384Z,96308.72
2022-08-17T20:33:08.213Z,96298.88
2022-08-17T20:36:01.988Z,96297.31
2022-08-17T20:38:41.669Z,96298.13
2022-08-17T20:41:15.598Z,96306.81
2022-08-17T20:43:52.238Z,96302.91
2022-08-17T20:46:28.160Z,96307.63
2022-08-17T20:48:58.550Z,96308.47
2022-08-17T20:51:34.655Z,96313.59
2022-08-17T20:54:35.025Z,96309.66
2022-08-17T20:57:03.269Z,96316.78
2022-08-17T21:00:03.105Z,96309.34
2022-08-17T21:02:32.902Z,96299.94
2022-08-17T21:05:07.210Z,96295.63
2022-08-17T21:07:55.717Z,96290.94
2022-08-17T21:10:35.559Z,96290.19
2022-08-17T21:13:34.857Z,96287.25
2022-08-17T21:16:08.849Z,96289.97
2022-08-17T21:18:41.931Z,96290.81
2022-08-17T21:21:24.232Z,96289.59
2022-08-17T21:24:05.415Z,96282.16
2022-08-17T21:26:50.484Z,96279.88
2022-08-17T21:29:30.906Z,96278.28
2022-08-17T21:32:23.687Z,96281.44
2022-08-17T21:35:27.286Z,96272.03
2022-08-17T21:38:00.392Z,96271.28
2022-08-17T21:40:31.451Z,96275.22
2022-08-17T21:43:02.099Z,96280.72
2022-08-17T21:45:31.252Z,96277.19
2022-08-17T21:48:13.983Z,96282.34
2022-08-17T21:50:45.200Z,96282.34
2022-08-17T21:53:15.069Z,96276.13
2022-08-17T21:55:44.708Z,96264.75
2022-08-17T21:58:28.861Z,96267.09
2022-08-17T22:01:22.328Z,96262.00
2022-08-17T22:03:58.520Z,96262.81
2022-08-17T22:06:29.185Z,96260.88
2022-08-17T22:09:02.279Z,96258.97
2022-08-17T22:11:31.804Z,96262.50
2022-08-17T22:14:05.360Z,96271.16
2022-08-17T22:16:34.848Z,96273.91
2022-08-17T22:19:03.067Z,96280.22
2022-08-17T22:21:31.094Z,96274.34
2022-08-17T22:24:04.879Z,96280.72
2022-08-17T22:27:00.729Z,96277.22
2022-08-17T22:29:47.201Z,96274.88
2022-08-17T22:32:34.480Z,96267.47
2022-08-17T22:35:30.559Z,96265.19
2022-08-17T22:38:32.137Z,96267.56
2022-08-17T22:41:31.941Z,96268.72
2022-08-17T22:44:09.051Z,96289.13
2022-08-17T22:46:40.628Z,96290.69
2022-08-17T22:49:09.015Z,96307.56
2022-08-17T22:51:37.365Z,96324.44
2022-08-17T22:54:34.508Z,96327.19
2022-08-17T22:57:21.776Z,96340.09
2022-08-17T22:59:53.873Z,96349.53
2022-08-17T23:02:24.840Z,96351.91
2022-08-17T23:04:55.681Z,96364.47
2022-08-17T23:07:23.720Z,96380.13
2022-08-17T23:09:53.387Z,96400.53
2022-08-17T23:12:25.565Z,96403.00
2022-08-17T23:15:00.668Z,96436.31
2022-08-17T23:17:33.926Z,96476.75
2022-08-17T23:20:06.320Z,96486.63
2022-08-17T23:22:34.431Z,96476.03
2022-08-17T23:25:03.392Z,96469.38
2022-08-17T23:27:31.726Z,96474.81
2022-08-17T23:30:01.165Z,96477.19
2022-08-17T23:32:29.256Z,96478.34
2022-08-17T23:34:59.142Z,96470.47
2022-08-17T23:37:27.647Z,96476.72
2022-08-17T23:39:55.689Z,96479.06
2022-08-17T23:42:24.174Z,96479.78
2022-08-17T23:44:52.174Z,96490.25
2022-08-17T23:47:21.577Z,96484.59
2022-08-17T23:49:49.678Z,96488.19
2022-08-17T23:52:22.706Z,96499.88
2022-08-17T23:54:50.782Z,96500.28
2022-08-17T23:57:33.850Z,96499.88
